createdAt,value
2019-02-09T00:02:02.783Z,2.43
2019-02-09T00:07:04.560Z,2.50
2019-02-09T00:12:06.115Z,3.07
2019-02-09T00:17:07.810Z,2.33
2019-02-09T00:22:09.585Z,2.60
2019-02-09T00:27:11.167Z,2.23
2019-02-09T00:32:12.731Z,2.70
2019-02-09T00:37:14.308Z,2.50
2019-02-09T00:42:15.926Z,2.47
2019-02-09T00:47:17.613Z,2.53
2019-02-09T00:52:19.170Z,2.53
2019-02-09T00:57:20.752Z,2.33
2019-02-09T01:02:22.417Z,2.27
2019-02-09T01:07:23.978Z,1.53
2019-02-09T01:12:25.579Z,1.90
2019-02-09T01:17:27.144Z,2.00
2019-02-09T01:22:28.691Z,1.37
2019-02-09T01:27:30.252Z,1.60
2019-02-09T01:32:31.903Z,1.70
2019-02-09T01:37:33.564Z,1.30
2019-02-09T01:42:35.123Z,1.40
2019-02-09T01:47:36.790Z,1.23
2019-02-09T01:52:38.458Z,1.20
2019-02-09T01:57:40.118Z,1.30
2019-02-09T02:02:41.890Z,1.20
2019-02-09T02:07:43.552Z,1.30
2019-02-09T02:12:45.215Z,1.57
2019-02-09T02:17:46.886Z,1.40
2019-02-09T02:22:48.556Z,1.60
2019-02-09T02:27:50.117Z,1.43
2019-02-09T02:32:51.877Z,1.73
2019-02-09T02:37:53.653Z,1.63
2019-02-09T02:42:55.318Z,1.83
2019-02-09T02:47:56.873Z,1.40
2019-02-09T02:52:58.419Z,1.77
2019-02-09T02:58:00.087Z,1.80
2019-02-09T03:03:01.865Z,1.87
2019-02-09T03:08:04.123Z,2.03
2019-02-09T03:13:05.771Z,2.00
2019-02-09T03:18:07.368Z,2.00
2019-02-09T03:23:08.919Z,2.30
2019-02-09T03:28:10.568Z,2.20
2019-02-09T03:33:12.201Z,3.67
2019-02-09T03:38:13.707Z,2.40
2019-02-09T03:43:15.264Z,2.10
2019-02-09T03:48:16.950Z,2.73
2019-02-09T03:53:18.511Z,2.50
2019-02-09T03:58:20.160Z,2.40
2019-02-09T04:03:22.044Z,2.23
2019-02-09T04:08:23.734Z,1.97
2019-02-09T04:13:25.381Z,2.00
2019-02-09T04:18:26.931Z,2.20
2019-02-09T04:23:28.723Z,2.20
2019-02-09T04:28:30.423Z,2.53
2019-02-09T04:33:31.971Z,2.23
2019-02-09T04:38:33.526Z,2.00
2019-02-09T04:43:35.098Z,2.07
2019-02-09T04:48:36.670Z,1.57
2019-02-09T04:53:38.324Z,1.80
2019-02-09T04:58:39.935Z,2.03
2019-02-09T05:03:41.602Z,1.77
2019-02-09T05:08:43.248Z,1.90
2019-02-09T05:13:44.787Z,1.90
2019-02-09T05:18:46.347Z,1.17
2019-02-09T05:23:48.014Z,1.20
2019-02-09T05:28:49.569Z,1.40
2019-02-09T05:33:51.243Z,1.53
2019-02-09T05:38:52.895Z,1.40
2019-02-09T05:43:54.443Z,1.30
2019-02-09T05:48:55.995Z,1.40
2019-02-09T05:53:57.544Z,1.57
2019-02-09T05:58:59.220Z,1.70
2019-02-09T06:04:00.899Z,1.20
2019-02-09T06:09:05.555Z,1.60
2019-02-09T06:14:07.165Z,1.83
2019-02-09T06:19:08.712Z,1.33
2019-02-09T06:24:10.369Z,1.20
2019-02-09T06:29:11.982Z,1.60
2019-02-09T06:34:13.537Z,1.60
2019-02-09T06:39:15.112Z,1.33
2019-02-09T06:44:16.789Z,2.00
2019-02-09T06:49:18.350Z,1.27
2019-02-09T06:54:19.914Z,1.30
2019-02-09T06:59:21.565Z,1.30
2019-02-09T07:04:23.280Z,1.40
2019-02-09T07:09:24.837Z,1.20
2019-02-09T07:14:26.487Z,1.03
2019-02-09T07:19:28.040Z,1.30
2019-02-09T07:24:29.812Z,1.00
2019-02-09T07:29:31.490Z,1.10
2019-02-09T07:34:33.139Z,1.37
2019-02-09T07:39:34.691Z,1.10
2019-02-09T07:44:36.267Z,1.30
2019-02-09T07:49:37.929Z,2.07
2019-02-09T07:54:39.608Z,1.00
2019-02-09T07:59:41.676Z,1.23
2019-02-09T08:04:43.368Z,1.40
2019-02-09T08:09:44.959Z,0.90
2019-02-09T08:14:46.640Z,0.83
2019-02-09T08:19:48.258Z,1.20
2019-02-09T08:24:49.948Z,1.17
2019-02-09T08:29:51.535Z,1.23
2019-02-09T08:34:53.123Z,1.07
2019-02-09T08:39:54.738Z,1.07
2019-02-09T08:44:56.329Z,1.00
2019-02-09T08:49:57.925Z,0.70
2019-02-09T08:54:59.504Z,0.90
2019-02-09T09:00:01.207Z,0.90
2019-02-09T09:05:09.558Z,1.20
2019-02-09T09:10:08.706Z,0.80
2019-02-09T09:15:13.750Z,0.60
2019-02-09T09:20:21.149Z,0.70
2019-02-09T09:25:22.847Z,0.60
2019-02-09T09:30:25.238Z,0.77
2019-02-09T09:35:27.118Z,0.60
2019-02-09T09:40:31.035Z,0.70
2019-02-09T09:45:34.044Z,0.60
2019-02-09T09:50:35.740Z,0.70
2019-02-09T09:55:37.448Z,0.70
2019-02-09T10:00:39.367Z,0.50
2019-02-09T10:05:41.045Z,0.63
2019-02-09T10:10:42.754Z,0.60
2019-02-09T10:15:44.459Z,0.63
2019-02-09T10:20:46.051Z,0.60
2019-02-09T10:25:47.670Z,0.70
2019-02-09T10:30:49.790Z,0.67
2019-02-09T10:35:51.483Z,0.80
2019-02-09T10:40:53.204Z,0.80
2019-02-09T10:45:54.733Z,0.63
2019-02-09T10:50:56.425Z,0.53
2019-02-09T10:55:58.178Z,0.40
2019-02-09T11:01:11.206Z,0.50
2019-02-09T11:06:12.899Z,0.47
2019-02-09T11:11:14.735Z,0.57
2019-02-09T11:16:16.463Z,0.83
2019-02-09T11:21:18.073Z,0.40
2019-02-09T11:26:19.729Z,0.40
2019-02-09T11:31:21.316Z,0.40
2019-02-09T11:36:22.890Z,0.60
2019-02-09T11:41:24.574Z,0.50
2019-02-09T11:46:26.115Z,0.83
2019-02-09T11:51:27.676Z,0.50
2019-02-09T11:56:29.541Z,0.57
2019-02-09T12:01:31.213Z,0.60
2019-02-09T12:06:32.937Z,0.72
2019-02-09T12:11:34.603Z,0.40
2019-02-09T12:16:36.274Z,0.90
2019-02-09T12:21:38.760Z,0.50
2019-02-09T12:26:40.721Z,0.77
2019-02-09T12:31:42.427Z,0.33
2019-02-09T12:36:44.244Z,0.73
2019-02-09T12:41:45.945Z,0.60
2019-02-09T12:46:47.575Z,0.60
2019-02-09T12:51:49.281Z,0.70
2019-02-09T12:56:53.638Z,0.60
2019-02-09T13:01:55.503Z,0.80
2019-02-09T13:06:58.477Z,0.78
2019-02-09T13:12:00.260Z,0.70
2019-02-09T13:17:01.845Z,0.60
2019-02-09T13:22:03.655Z,0.70
2019-02-09T13:27:05.353Z,0.65
2019-02-09T13:32:07.024Z,0.57
2019-02-09T13:37:08.815Z,1.00
2019-02-09T13:42:10.368Z,0.70
2019-02-09T13:47:12.025Z,1.10
2019-02-09T13:52:13.735Z,0.57
2019-02-09T13:57:15.431Z,0.67
2019-02-09T14:02:17.134Z,0.53
2019-02-09T14:07:18.841Z,0.67
2019-02-09T14:12:20.524Z,0.80
2019-02-09T14:17:22.204Z,0.63
2019-02-09T14:22:23.797Z,0.70
2019-02-09T14:27:26.621Z,0.60
2019-02-09T14:32:28.218Z,0.80
2019-02-09T14:37:29.782Z,0.50
2019-02-09T14:42:31.474Z,0.60
2019-02-09T14:47:33.177Z,0.73
2019-02-09T14:52:34.880Z,0.60
2019-02-09T14:57:36.591Z,0.57
2019-02-09T15:02:38.272Z,0.60
2019-02-09T15:07:40.051Z,0.67
2019-02-09T15:12:41.746Z,0.90
2019-02-09T15:17:43.391Z,0.73
2019-02-09T15:22:45.105Z,1.10
2019-02-09T15:27:46.803Z,1.10
2019-02-09T15:32:48.528Z,0.90
2019-02-09T15:37:50.293Z,0.50
2019-02-09T15:42:51.989Z,0.70
2019-02-09T15:47:53.604Z,0.73
2019-02-09T15:52:55.280Z,0.60
2019-02-09T15:57:56.911Z,1.00
2019-02-09T16:02:58.700Z,0.97
2019-02-09T16:08:00.447Z,0.80
2019-02-09T16:13:02.037Z,0.90
2019-02-09T16:18:04.158Z,0.77
2019-02-09T16:23:06.339Z,0.63
2019-02-09T16:28:08.168Z,1.00
2019-02-09T16:33:09.867Z,1.90
2019-02-09T16:38:13.623Z,1.07
2019-02-09T16:43:15.535Z,1.00
2019-02-09T16:48:17.113Z,1.03
2019-02-09T16:53:18.840Z,1.23
2019-02-09T16:58:20.580Z,1.03
2019-02-09T17:03:22.405Z,0.90
2019-02-09T17:08:25.540Z,1.57
2019-02-09T17:13:27.329Z,0.80
2019-02-09T17:18:28.922Z,1.00
2019-02-09T17:23:30.502Z,0.70
2019-02-09T17:28:32.327Z,1.13
2019-02-09T17:33:33.991Z,0.83
2019-02-09T17:38:35.763Z,1.13
2019-02-09T17:43:37.419Z,0.90
2019-02-09T17:48:39.029Z,1.00
2019-02-09T17:53:40.754Z,1.10
2019-02-09T17:58:42.514Z,1.20
2019-02-09T18:03:44.272Z,0.83
2019-02-09T18:08:45.911Z,1.03
2019-02-09T18:13:47.507Z,0.90
2019-02-09T18:18:49.268Z,0.90
2019-02-09T18:23:50.871Z,0.97
2019-02-09T18:28:52.597Z,1.10
2019-02-09T18:33:54.292Z,1.20
2019-02-09T18:38:55.975Z,1.70
2019-02-09T18:43:57.542Z,1.40
2019-02-09T18:48:59.432Z,1.20
2019-02-09T18:54:00.998Z,1.50
2019-02-09T18:59:02.791Z,1.20
2019-02-09T19:04:04.460Z,1.33
2019-02-09T19:09:07.904Z,1.00
2019-02-09T19:14:09.603Z,1.10
2019-02-09T19:19:11.282Z,1.20
2019-02-09T19:24:12.861Z,1.00
2019-02-09T19:29:14.529Z,1.13
2019-02-09T19:34:18.663Z,1.30
2019-02-09T19:39:20.385Z,1.40
2019-02-09T19:44:22.005Z,1.23
2019-02-09T19:49:23.703Z,1.47
2019-02-09T19:54:25.485Z,0.73
2019-02-09T19:59:27.184Z,0.80
2019-02-09T20:04:28.862Z,0.83
2019-02-09T20:09:30.440Z,1.03
2019-02-09T20:14:32.040Z,0.90
2019-02-09T20:19:33.614Z,1.10
2019-02-09T20:24:35.332Z,1.10
2019-02-09T20:29:36.893Z,1.00
2019-02-09T20:34:38.473Z,0.90
2019-02-09T20:39:40.019Z,1.23
2019-02-09T20:44:41.595Z,1.17
2019-02-09T20:49:43.164Z,0.90
2019-02-09T20:54:44.727Z,1.30
2019-02-09T20:59:46.294Z,2.43
2019-02-09T21:04:47.876Z,1.10
2019-02-09T21:09:49.442Z,1.07
2019-02-09T21:14:50.995Z,1.43
2019-02-09T21:19:52.568Z,0.80
2019-02-09T21:24:54.146Z,1.10
2019-02-09T21:29:55.719Z,1.40
2019-02-09T21:34:57.261Z,1.07
2019-02-09T21:39:58.917Z,1.00
2019-02-09T21:45:00.486Z,1.20
2019-02-09T21:50:02.916Z,1.00
2019-02-09T21:55:05.234Z,1.00
2019-02-09T22:00:16.113Z,1.30
2019-02-09T22:05:18.014Z,1.20
2019-02-09T22:10:20.474Z,1.17
2019-02-09T22:15:23.178Z,0.90
2019-02-09T22:20:24.848Z,1.00
2019-02-09T22:25:26.764Z,0.97
2019-02-09T22:30:28.542Z,1.10
2019-02-09T22:35:30.223Z,1.00
2019-02-09T22:40:33.086Z,1.20
2019-02-09T22:45:35.061Z,1.20
2019-02-09T22:50:38.987Z,1.23
2019-02-09T22:55:40.637Z,1.10
2019-02-09T23:01:10.496Z,1.10
2019-02-09T23:06:52.531Z,1.10
2019-02-09T23:11:49.843Z,1.30
2019-02-09T23:16:51.508Z,0.87
2019-02-09T23:21:53.122Z,1.00
2019-02-09T23:26:54.691Z,1.30
2019-02-09T23:31:56.249Z,1.37
2019-02-09T23:36:57.931Z,1.13
2019-02-09T23:41:59.563Z,1.40
2019-02-09T23:47:01.256Z,1.10
2019-02-09T23:52:02.936Z,1.30
2019-02-09T23:57:04.513Z,0.83
